createdAt,value
2018-11-21T00:00:50.443Z,4.60
2018-11-21T00:03:17.577Z,4.60
2018-11-21T00:05:44.693Z,4.50
2018-11-21T00:08:11.927Z,4.50
2018-11-21T00:10:39.027Z,4.50
2018-11-21T00:13:06.542Z,4.50
2018-11-21T00:15:33.658Z,4.40
2018-11-21T00:18:00.841Z,4.30
2018-11-21T00:20:27.954Z,4.30
2018-11-21T00:22:55.133Z,4.40
2018-11-21T00:25:22.262Z,4.30
2018-11-21T00:27:49.391Z,4.20
2018-11-21T00:30:16.532Z,4.20
2018-11-21T00:32:43.660Z,4.20
2018-11-21T00:35:10.906Z,4.10
2018-11-21T00:37:38.160Z,4.10
2018-11-21T00:40:10.292Z,4.10
2018-11-21T00:42:38.121Z,4.10
2018-11-21T00:45:05.312Z,4.10
2018-11-21T00:47:32.427Z,4.00
2018-11-21T00:49:59.559Z,3.90
2018-11-21T00:52:26.680Z,3.90
2018-11-21T00:54:53.849Z,3.90
2018-11-21T00:57:20.967Z,4.10
2018-11-21T00:59:49.163Z,4.10
2018-11-21T01:02:16.309Z,3.90
2018-11-21T01:04:46.440Z,4.00
2018-11-21T01:07:13.556Z,3.90
2018-11-21T01:09:40.706Z,3.80
2018-11-21T01:12:07.829Z,3.90
2018-11-21T01:14:35.014Z,3.90
2018-11-21T01:17:02.258Z,3.90
2018-11-21T01:19:29.389Z,3.90
2018-11-21T01:21:56.498Z,3.90
2018-11-21T01:24:23.641Z,3.90
2018-11-21T01:26:50.766Z,3.90
2018-11-21T01:29:18.393Z,3.90
2018-11-21T01:31:45.525Z,3.90
2018-11-21T01:34:12.809Z,3.80
2018-11-21T01:36:39.985Z,3.80
2018-11-21T01:39:08.555Z,3.80
2018-11-21T01:41:35.684Z,3.80
2018-11-21T01:44:02.823Z,3.80
2018-11-21T01:46:29.953Z,3.70
2018-11-21T01:48:57.062Z,3.80
2018-11-21T01:51:24.207Z,3.80
2018-11-21T01:53:51.350Z,3.90
2018-11-21T01:56:18.492Z,3.90
2018-11-21T01:58:45.627Z,3.80
2018-11-21T02:01:12.758Z,3.90
2018-11-21T02:03:39.950Z,3.90
2018-11-21T02:06:07.070Z,3.90
2018-11-21T02:08:34.377Z,4.00
2018-11-21T02:11:01.621Z,4.00
2018-11-21T02:13:28.761Z,3.90
2018-11-21T02:15:55.887Z,3.90
2018-11-21T02:18:23.063Z,4.00
2018-11-21T02:20:50.178Z,4.00
2018-11-21T02:23:23.018Z,4.10
2018-11-21T02:25:50.130Z,4.00
2018-11-21T02:28:17.284Z,4.10
2018-11-21T02:30:44.407Z,4.00
2018-11-21T02:33:11.529Z,4.00
2018-11-21T02:35:38.662Z,4.00
2018-11-21T02:38:05.783Z,4.00
2018-11-21T02:40:32.922Z,4.00
2018-11-21T02:43:00.097Z,4.00
2018-11-21T02:45:27.235Z,4.10
2018-11-21T02:47:54.366Z,4.10
2018-11-21T02:50:22.057Z,4.20
2018-11-21T02:52:49.243Z,4.30
2018-11-21T02:55:16.365Z,4.30
2018-11-21T02:57:43.479Z,4.20
2018-11-21T03:00:15.622Z,4.20
2018-11-21T03:02:42.746Z,4.20
2018-11-21T03:05:10.031Z,4.20
2018-11-21T03:07:38.751Z,4.30
2018-11-21T03:10:05.952Z,4.20
2018-11-21T03:12:33.103Z,4.20
2018-11-21T03:15:00.251Z,4.10
2018-11-21T03:17:27.371Z,4.20
2018-11-21T03:19:54.483Z,4.20
2018-11-21T03:22:21.633Z,4.10
2018-11-21T03:24:48.744Z,4.10
2018-11-21T03:27:15.869Z,4.20
2018-11-21T03:29:42.978Z,4.10
2018-11-21T03:32:10.116Z,4.20
2018-11-21T03:34:37.268Z,4.10
2018-11-21T03:37:04.462Z,4.10
2018-11-21T03:39:31.570Z,4.20
2018-11-21T03:41:58.708Z,4.20
2018-11-21T03:44:25.842Z,4.20
2018-11-21T03:46:52.985Z,4.10
2018-11-21T03:49:20.097Z,4.10
2018-11-21T03:51:47.243Z,4.10
2018-11-21T03:54:19.264Z,4.10
2018-11-21T03:56:46.394Z,4.10
2018-11-21T03:59:13.515Z,4.00
2018-11-21T04:01:40.645Z,3.90
2018-11-21T04:04:08.198Z,4.00
2018-11-21T04:06:35.334Z,4.00
2018-11-21T04:09:02.926Z,3.90
2018-11-21T04:11:30.050Z,4.00
2018-11-21T04:13:57.183Z,3.90
2018-11-21T04:16:24.309Z,4.00
2018-11-21T04:18:52.762Z,4.00
2018-11-21T04:21:19.878Z,4.00
2018-11-21T04:23:47.009Z,4.00
2018-11-21T04:26:14.908Z,4.00
2018-11-21T04:28:42.039Z,4.10
2018-11-21T04:31:09.161Z,4.10
2018-11-21T04:33:36.313Z,4.10
2018-11-21T04:36:03.811Z,4.20
2018-11-21T04:38:30.921Z,4.20
2018-11-21T04:40:58.073Z,4.20
2018-11-21T04:46:07.211Z,4.20
2018-11-21T04:48:35.086Z,4.10
2018-11-21T04:51:02.221Z,4.10
2018-11-21T04:53:29.363Z,4.00
2018-11-21T04:55:56.555Z,4.10
2018-11-21T04:58:23.657Z,4.10
2018-11-21T05:00:51.001Z,4.10
2018-11-21T05:03:18.597Z,4.10
2018-11-21T05:05:45.729Z,4.10
2018-11-21T05:08:12.845Z,4.00
2018-11-21T05:10:39.970Z,4.00
2018-11-21T05:13:07.104Z,3.90
2018-11-21T05:15:34.287Z,3.90
2018-11-21T05:18:01.414Z,3.80
2018-11-21T05:20:28.557Z,3.80
2018-11-21T05:22:55.670Z,3.70
2018-11-21T05:25:22.785Z,3.70
2018-11-21T05:27:49.932Z,3.70
2018-11-21T05:30:17.048Z,3.70
2018-11-21T05:32:44.177Z,3.70
2018-11-21T05:35:11.300Z,3.60
2018-11-21T05:37:38.699Z,3.60
2018-11-21T05:40:07.102Z,3.60
2018-11-21T05:42:34.421Z,3.50
2018-11-21T05:45:01.590Z,3.60
2018-11-21T05:47:28.772Z,3.50
2018-11-21T05:49:55.994Z,3.40
2018-11-21T05:52:23.134Z,3.40
2018-11-21T05:54:50.249Z,3.40
2018-11-21T05:57:17.381Z,3.40
2018-11-21T05:59:44.687Z,3.40
2018-11-21T06:02:11.820Z,3.40
2018-11-21T06:04:38.926Z,3.30
2018-11-21T06:07:06.046Z,3.30
2018-11-21T06:09:33.183Z,3.30
2018-11-21T06:12:04.275Z,3.30
2018-11-21T06:14:27.465Z,3.30
2018-11-21T06:16:54.576Z,3.20
2018-11-21T06:19:21.759Z,3.10
2018-11-21T06:21:48.882Z,3.10
2018-11-21T06:24:16.005Z,3.20
2018-11-21T06:26:43.721Z,3.20
2018-11-21T06:29:10.860Z,3.30
2018-11-21T06:31:37.970Z,3.30
2018-11-21T06:34:05.105Z,3.40
2018-11-21T06:36:32.226Z,3.30
2018-11-21T06:38:59.377Z,3.30
2018-11-21T06:41:26.499Z,3.40
2018-11-21T06:43:53.638Z,3.40
2018-11-21T06:46:20.747Z,3.30
2018-11-21T06:48:47.886Z,3.30
2018-11-21T06:51:15.028Z,3.20
2018-11-21T06:53:42.291Z,3.10
2018-11-21T06:56:09.397Z,3.10
2018-11-21T06:58:36.535Z,3.10
2018-11-21T07:01:03.785Z,3.00
2018-11-21T07:03:30.922Z,3.00
2018-11-21T07:05:58.065Z,3.20
2018-11-21T07:08:25.178Z,3.10
2018-11-21T07:10:52.330Z,3.10
2018-11-21T07:13:19.446Z,3.00
2018-11-21T07:15:46.750Z,3.00
2018-11-21T07:18:14.019Z,3.00
2018-11-21T07:20:41.158Z,3.00
2018-11-21T07:23:08.275Z,3.00
2018-11-21T07:25:35.409Z,3.10
2018-11-21T07:28:02.530Z,3.00
2018-11-21T07:30:29.702Z,2.90
2018-11-21T07:32:56.830Z,2.90
2018-11-21T07:35:24.126Z,3.00
2018-11-21T07:37:51.258Z,3.00
2018-11-21T07:40:18.379Z,3.00
2018-11-21T07:42:45.526Z,3.10
2018-11-21T07:45:13.887Z,3.10
2018-11-21T07:47:41.522Z,3.10
2018-11-21T07:50:13.773Z,3.20
2018-11-21T07:52:41.206Z,3.30
2018-11-21T07:55:09.048Z,3.40
2018-11-21T07:57:40.634Z,3.40
2018-11-21T08:00:56.381Z,3.40
2018-11-21T08:03:24.760Z,3.50
2018-11-21T08:06:06.757Z,3.50
2018-11-21T08:08:56.434Z,3.50
2018-11-21T08:11:31.906Z,3.50
2018-11-21T08:14:17.299Z,3.50
2018-11-21T08:17:02.744Z,3.60
2018-11-21T08:19:47.874Z,3.50
2018-11-21T08:22:35.765Z,3.60
2018-11-21T08:25:21.054Z,3.70
2018-11-21T08:28:19.655Z,3.70
2018-11-21T08:30:46.923Z,3.80
2018-11-21T08:33:14.049Z,3.80
2018-11-21T08:35:41.178Z,3.70
2018-11-21T08:38:08.289Z,3.80
2018-11-21T08:40:35.545Z,3.60
2018-11-21T08:43:02.706Z,3.70
2018-11-21T08:45:29.846Z,3.70
2018-11-21T08:47:57.119Z,3.80
2018-11-21T08:50:24.438Z,3.80
2018-11-21T08:52:51.561Z,3.70
2018-11-21T08:55:18.706Z,3.80
2018-11-21T08:57:45.811Z,3.80
2018-11-21T09:00:13.702Z,3.90
2018-11-21T09:02:40.854Z,4.00
2018-11-21T09:05:09.209Z,3.90
2018-11-21T09:07:37.007Z,4.00
2018-11-21T09:10:06.419Z,4.00
2018-11-21T09:12:33.696Z,4.10
2018-11-21T09:15:00.830Z,4.20
2018-11-21T09:17:27.930Z,4.30
2018-11-21T09:19:55.063Z,4.30
2018-11-21T09:22:22.184Z,4.20
2018-11-21T09:24:49.293Z,4.10
2018-11-21T09:27:16.430Z,4.10
2018-11-21T09:29:43.576Z,4.10
2018-11-21T09:32:10.715Z,4.20
2018-11-21T09:34:38.258Z,4.10
2018-11-21T09:37:05.394Z,4.20
2018-11-21T09:39:32.728Z,4.30
2018-11-21T09:41:59.858Z,4.30
2018-11-21T09:44:26.986Z,4.20
2018-11-21T09:46:54.131Z,4.40
2018-11-21T09:49:21.276Z,4.40
2018-11-21T09:51:48.406Z,4.40
2018-11-21T09:54:15.551Z,4.40
2018-11-21T09:56:42.750Z,4.50
2018-11-21T09:59:11.728Z,4.50
2018-11-21T10:02:15.174Z,4.40
2018-11-21T10:04:42.312Z,4.40
2018-11-21T10:07:09.447Z,4.50
2018-11-21T10:09:39.742Z,4.60
2018-11-21T10:12:06.891Z,4.70
2018-11-21T10:14:34.015Z,4.90
2018-11-21T10:17:01.154Z,4.90
2018-11-21T10:19:28.282Z,5.10
2018-11-21T10:21:55.409Z,5.10
2018-11-21T10:24:22.540Z,5.20
2018-11-21T10:26:49.672Z,5.30
2018-11-21T10:29:17.800Z,5.60
2018-11-21T10:31:44.940Z,5.70
2018-11-21T10:34:12.055Z,6.00
2018-11-21T10:36:39.174Z,6.10
2018-11-21T10:39:07.853Z,6.30
2018-11-21T10:41:35.729Z,6.50
2018-11-21T10:44:02.164Z,6.70
2018-11-21T10:46:29.286Z,6.70
2018-11-21T10:48:56.426Z,6.80
2018-11-21T10:51:23.560Z,6.90
2018-11-21T10:53:50.711Z,6.80
2018-11-21T10:56:17.860Z,6.80
2018-11-21T10:58:44.994Z,6.70
2018-11-21T11:01:27.208Z,6.70
2018-11-21T11:04:28.758Z,6.80
2018-11-21T11:07:18.297Z,6.80
2018-11-21T11:10:08.068Z,6.70
2018-11-21T11:13:00.588Z,6.60
2018-11-21T11:15:50.247Z,6.80
2018-11-21T11:18:39.858Z,7.10
2018-11-21T11:21:29.453Z,7.30
2018-11-21T11:24:28.439Z,7.50
2018-11-21T11:27:21.189Z,7.40
2018-11-21T11:30:06.885Z,7.40
2018-11-21T11:32:52.114Z,7.40
2018-11-21T11:35:41.570Z,7.20
2018-11-21T11:38:44.283Z,7.10
2018-11-21T11:41:36.670Z,7.00
2018-11-21T11:44:33.964Z,7.00
2018-11-21T11:47:18.882Z,7.40
2018-11-21T11:50:04.202Z,7.90
2018-11-21T11:52:49.325Z,8.20
2018-11-21T11:55:44.887Z,8.20
2018-11-21T11:58:34.433Z,8.00
2018-11-21T12:01:20.238Z,7.80
2018-11-21T12:04:15.591Z,7.40
2018-11-21T12:07:20.503Z,7.00
2018-11-21T12:10:05.779Z,6.90
2018-11-21T12:12:57.291Z,6.90
2018-11-21T12:15:52.738Z,6.80
2018-11-21T12:18:42.074Z,6.70
2018-11-21T12:21:34.755Z,6.80
2018-11-21T12:24:33.222Z,6.80
2018-11-21T12:27:25.884Z,6.50
2018-11-21T12:30:24.653Z,6.40
2018-11-21T12:33:26.641Z,6.40
2018-11-21T12:36:11.740Z,6.80
2018-11-21T12:38:57.150Z,6.80
2018-11-21T12:41:42.813Z,6.70
2018-11-21T12:44:30.019Z,6.60
2018-11-21T12:47:16.717Z,6.50
2018-11-21T12:50:02.325Z,6.50
2018-11-21T12:52:36.645Z,6.40
2018-11-21T12:55:22.379Z,6.40
2018-11-21T12:58:27.067Z,6.40
2018-11-21T13:01:19.558Z,6.30
2018-11-21T13:03:57.526Z,6.20
2018-11-21T13:06:46.993Z,6.10
2018-11-21T13:09:33.834Z,6.10
2018-11-21T13:12:25.194Z,6.00
2018-11-21T13:15:20.630Z,6.00
2018-11-21T13:18:07.571Z,6.10
2018-11-21T13:20:52.581Z,6.20
2018-11-21T13:23:37.676Z,6.20
2018-11-21T13:26:22.731Z,6.20
2018-11-21T13:29:07.894Z,6.20
2018-11-21T13:32:06.427Z,6.10
2018-11-21T13:34:58.935Z,6.00
2018-11-21T13:37:50.817Z,6.00
2018-11-21T13:40:48.101Z,6.10
2018-11-21T13:43:25.851Z,6.00
2018-11-21T13:46:30.739Z,6.00
2018-11-21T13:49:26.063Z,6.10
2018-11-21T13:52:11.359Z,6.20
2018-11-21T13:55:03.825Z,6.30
2018-11-21T13:57:31.405Z,6.30
2018-11-21T13:59:58.882Z,6.20
2018-11-21T14:02:26.139Z,6.20
2018-11-21T14:04:53.322Z,6.20
2018-11-21T14:07:20.429Z,6.10
2018-11-21T14:09:47.523Z,6.10
2018-11-21T14:12:14.629Z,6.10
2018-11-21T14:14:41.718Z,6.10
2018-11-21T14:17:08.831Z,6.00
2018-11-21T14:19:35.933Z,5.90
2018-11-21T14:22:03.072Z,5.90
2018-11-21T14:24:30.286Z,6.00
2018-11-21T14:26:58.115Z,6.00
2018-11-21T14:29:24.506Z,6.10
2018-11-21T14:31:51.622Z,6.00
2018-11-21T14:34:18.739Z,5.90
2018-11-21T14:36:45.896Z,6.00
2018-11-21T14:39:13.773Z,5.80
2018-11-21T14:41:42.048Z,5.90
2018-11-21T14:44:09.676Z,5.80
2018-11-21T14:46:36.917Z,5.80
2018-11-21T14:49:04.580Z,5.80
2018-11-21T14:51:31.662Z,5.60
2018-11-21T14:53:58.765Z,5.70
2018-11-21T14:56:29.392Z,5.60
2018-11-21T14:58:53.125Z,5.60
2018-11-21T15:01:20.214Z,5.60
2018-11-21T15:03:47.347Z,5.50
2018-11-21T15:06:14.435Z,5.40
2018-11-21T15:08:41.546Z,5.40
2018-11-21T15:11:08.649Z,5.30
2018-11-21T15:13:35.747Z,5.30
2018-11-21T15:16:02.850Z,5.20
2018-11-21T15:18:29.976Z,5.20
2018-11-21T15:20:57.067Z,5.10
2018-11-21T15:23:24.349Z,5.10
2018-11-21T15:25:51.512Z,5.10
2018-11-21T15:28:18.623Z,5.10
2018-11-21T15:30:45.722Z,5.00
2018-11-21T15:33:12.838Z,5.00
2018-11-21T15:35:40.211Z,4.90
2018-11-21T15:38:07.303Z,4.90
2018-11-21T15:40:34.412Z,4.90
2018-11-21T15:43:01.502Z,4.80
2018-11-21T15:45:28.619Z,4.70
2018-11-21T15:47:57.455Z,4.80
2018-11-21T15:50:24.681Z,4.80
2018-11-21T15:52:53.075Z,4.80
2018-11-21T15:55:19.395Z,4.70
2018-11-21T15:57:46.627Z,4.70
2018-11-21T16:00:22.534Z,4.70
2018-11-21T16:02:50.997Z,4.70
2018-11-21T16:05:18.345Z,4.80
2018-11-21T16:07:46.601Z,4.70
2018-11-21T16:10:18.810Z,4.70
2018-11-21T16:12:42.227Z,4.70
2018-11-21T16:15:14.893Z,4.60
2018-11-21T16:17:42.054Z,4.80
2018-11-21T16:20:10.309Z,4.70
2018-11-21T16:22:37.410Z,4.80
2018-11-21T16:25:05.394Z,4.70
2018-11-21T16:27:32.513Z,4.70
2018-11-21T16:29:59.592Z,4.70
2018-11-21T16:32:26.707Z,4.70
2018-11-21T16:34:53.803Z,4.60
2018-11-21T16:37:21.095Z,4.70
2018-11-21T16:39:48.194Z,4.70
2018-11-21T16:42:15.311Z,4.70
2018-11-21T16:44:42.434Z,4.60
2018-11-21T16:47:09.558Z,4.60
2018-11-21T16:49:36.650Z,4.60
2018-11-21T16:52:04.800Z,4.60
2018-11-21T16:54:31.909Z,4.70
2018-11-21T16:56:59.027Z,4.60
2018-11-21T16:59:26.113Z,4.60
2018-11-21T17:01:53.238Z,4.60
2018-11-21T17:04:20.391Z,4.60
2018-11-21T17:06:47.536Z,4.60
2018-11-21T17:09:14.638Z,4.50
2018-11-21T17:11:41.770Z,4.50
2018-11-21T17:14:08.880Z,4.50
2018-11-21T17:16:35.981Z,4.40
2018-11-21T17:19:03.079Z,4.40
2018-11-21T17:21:30.219Z,4.40
2018-11-21T17:23:57.312Z,4.50
2018-11-21T17:26:24.466Z,4.50
2018-11-21T17:28:51.747Z,4.50
2018-11-21T17:31:18.861Z,4.50
2018-11-21T17:33:52.030Z,4.40
2018-11-21T17:36:13.070Z,4.40
2018-11-21T17:38:40.171Z,4.50
2018-11-21T17:41:07.281Z,4.40
2018-11-21T17:43:34.390Z,4.30
2018-11-21T17:46:04.131Z,4.30
2018-11-21T17:48:28.676Z,4.40
2018-11-21T17:50:55.891Z,4.50
2018-11-21T17:53:22.998Z,4.50
2018-11-21T17:55:50.086Z,4.50
2018-11-21T17:58:17.201Z,4.50
2018-11-21T18:00:44.562Z,4.50
2018-11-21T18:03:12.046Z,4.40
2018-11-21T18:05:40.078Z,4.50
2018-11-21T18:08:07.191Z,4.50
2018-11-21T18:10:35.826Z,4.50
2018-11-21T18:13:02.950Z,4.40
2018-11-21T18:15:30.058Z,4.40
2018-11-21T18:17:57.278Z,4.40
2018-11-21T18:20:24.369Z,4.50
2018-11-21T18:22:51.829Z,4.40
2018-11-21T18:25:23.572Z,4.40
2018-11-21T18:27:50.690Z,4.40
2018-11-21T18:30:19.321Z,4.40
2018-11-21T18:32:46.767Z,4.40
2018-11-21T18:35:15.248Z,4.40
2018-11-21T18:37:43.029Z,4.50
2018-11-21T18:40:12.276Z,4.40
2018-11-21T18:42:39.749Z,4.40
2018-11-21T18:45:12.713Z,4.50
2018-11-21T18:47:39.922Z,4.50
2018-11-21T18:50:11.054Z,4.50
2018-11-21T18:52:35.487Z,4.40
2018-11-21T18:55:02.763Z,4.40
2018-11-21T18:57:57.822Z,4.40
2018-11-21T19:00:27.713Z,4.30
2018-11-21T19:02:54.838Z,4.40
2018-11-21T19:05:21.942Z,4.20
2018-11-21T19:07:49.036Z,4.30
2018-11-21T19:10:16.137Z,4.40
2018-11-21T19:12:43.963Z,4.40
2018-11-21T19:15:13.162Z,4.40
2018-11-21T19:17:40.243Z,4.40
2018-11-21T19:20:13.948Z,4.30
2018-11-21T19:22:41.042Z,4.30
2018-11-21T19:25:08.689Z,4.30
2018-11-21T19:27:35.915Z,4.30
2018-11-21T19:30:03.225Z,4.40
2018-11-21T19:32:30.375Z,4.30
2018-11-21T19:34:57.649Z,4.30
2018-11-21T19:37:24.751Z,4.40
2018-11-21T19:39:51.857Z,4.50
2018-11-21T19:42:20.255Z,4.40
2018-11-21T19:44:46.203Z,4.40
2018-11-21T19:47:13.558Z,4.40
2018-11-21T19:49:40.746Z,4.40
2018-11-21T19:52:07.834Z,4.30
2018-11-21T19:54:34.934Z,4.40
2018-11-21T19:57:02.528Z,4.40
2018-11-21T19:59:29.699Z,4.40
2018-11-21T20:01:57.024Z,4.50
2018-11-21T20:04:24.230Z,4.40
2018-11-21T20:06:51.435Z,4.50
2018-11-21T20:09:18.519Z,4.40
2018-11-21T20:11:45.634Z,4.40
2018-11-21T20:14:12.722Z,4.40
2018-11-21T20:16:39.833Z,4.40
2018-11-21T20:19:07.107Z,4.30
2018-11-21T20:21:34.211Z,4.30
2018-11-21T20:24:01.424Z,4.40
2018-11-21T20:26:28.547Z,4.40
2018-11-21T20:28:55.635Z,4.40
2018-11-21T20:31:22.745Z,4.40
2018-11-21T20:33:49.832Z,4.40
2018-11-21T20:36:16.942Z,4.50
2018-11-21T20:38:44.115Z,4.40
2018-11-21T20:41:11.177Z,4.40
2018-11-21T20:43:38.284Z,4.30
2018-11-21T20:46:05.374Z,4.30
2018-11-21T20:48:32.484Z,4.30
2018-11-21T20:50:59.565Z,4.40
2018-11-21T20:53:26.690Z,4.40
2018-11-21T20:55:53.789Z,4.30
2018-11-21T20:58:20.904Z,4.30
2018-11-21T21:00:47.984Z,4.40
2018-11-21T21:03:15.091Z,4.50
2018-11-21T21:05:42.174Z,4.40
2018-11-21T21:08:09.512Z,4.40
2018-11-21T21:10:42.939Z,4.50
2018-11-21T21:13:29.680Z,4.50
2018-11-21T21:15:56.757Z,4.40
2018-11-21T21:18:24.913Z,4.50
2018-11-21T21:20:52.011Z,4.50
2018-11-21T21:23:19.161Z,4.50
2018-11-21T21:25:46.278Z,4.50
2018-11-21T21:28:13.390Z,4.50
2018-11-21T21:30:40.523Z,4.50
2018-11-21T21:33:07.625Z,4.50
2018-11-21T21:35:34.824Z,4.50
2018-11-21T21:38:01.915Z,4.50
2018-11-21T21:40:29.012Z,4.60
2018-11-21T21:42:56.146Z,4.50
2018-11-21T21:45:27.674Z,4.50
2018-11-21T21:47:54.845Z,4.50
2018-11-21T21:50:26.299Z,4.50
2018-11-21T21:52:53.410Z,4.50
2018-11-21T21:55:21.784Z,4.50
2018-11-21T21:57:48.874Z,4.50
2018-11-21T22:00:26.028Z,4.50
2018-11-21T22:02:53.350Z,4.60
2018-11-21T22:05:20.559Z,4.60
2018-11-21T22:07:47.651Z,4.60
2018-11-21T22:10:15.983Z,4.50
2018-11-21T22:12:43.075Z,4.60
2018-11-21T22:15:30.522Z,4.60
2018-11-21T22:17:59.224Z,4.60
2018-11-21T22:20:26.335Z,4.60
2018-11-21T22:22:54.661Z,4.60
2018-11-21T22:25:22.170Z,4.60
2018-11-21T22:27:49.290Z,4.50
2018-11-21T22:30:16.402Z,4.50
2018-11-21T22:32:44.780Z,4.50
2018-11-21T22:35:13.075Z,4.50
2018-11-21T22:37:40.380Z,4.50
2018-11-21T22:40:09.817Z,4.50
2018-11-21T22:42:37.009Z,4.50
2018-11-21T22:45:05.004Z,4.50
2018-11-21T22:47:32.116Z,4.50
2018-11-21T22:49:59.243Z,4.50
2018-11-21T22:52:26.359Z,4.60
2018-11-21T22:54:53.494Z,4.70
2018-11-21T22:57:20.616Z,4.60
2018-11-21T22:59:47.769Z,4.60
2018-11-21T23:02:14.882Z,4.60
2018-11-21T23:04:42.020Z,4.50
2018-11-21T23:07:09.228Z,4.50
2018-11-21T23:09:36.355Z,4.50
2018-11-21T23:12:03.469Z,4.50
2018-11-21T23:14:30.593Z,4.60
2018-11-21T23:16:57.725Z,4.60
2018-11-21T23:19:24.841Z,4.60
2018-11-21T23:21:51.977Z,4.60
2018-11-21T23:24:19.238Z,4.60
2018-11-21T23:26:46.374Z,4.60
2018-11-21T23:29:13.495Z,4.60
2018-11-21T23:31:41.631Z,4.50
2018-11-21T23:34:08.751Z,4.50
2018-11-21T23:36:35.876Z,4.50
2018-11-21T23:39:04.590Z,4.50
2018-11-21T23:41:31.727Z,4.50
2018-11-21T23:43:58.843Z,4.50
2018-11-21T23:46:25.986Z,4.60
2018-11-21T23:48:53.106Z,4.50
2018-11-21T23:51:20.255Z,4.50
2018-11-21T23:53:47.383Z,4.50
2018-11-21T23:56:14.582Z,4.50
2018-11-21T23:58:41.722Z,4.50
